sensor_id;sensor_type;location;lat;lon;timestamp;P1;durP1;ratioP1;P2;durP2;ratioP2
16792;SDS011;8513;42.662;23.350;2022-08-24T00:01:52;10.10;;;9.20;;
16792;SDS011;8513;42.662;23.350;2022-08-24T00:04:17;10.95;;;9.85;;
16792;SDS011;8513;42.662;23.350;2022-08-24T00:06:42;10.35;;;9.35;;
16792;SDS011;8513;42.662;23.350;2022-08-24T00:09:08;11.82;;;10.13;;
16792;SDS011;8513;42.662;23.350;2022-08-24T00:11:34;9.93;;;8.82;;
16792;SDS011;8513;42.662;23.350;2022-08-24T00:13:59;10.70;;;9.70;;
16792;SDS011;8513;42.662;23.350;2022-08-24T00:16:25;12.65;;;10.18;;
16792;SDS011;8513;42.662;23.350;2022-08-24T00:18:50;12.20;;;10.73;;
16792;SDS011;8513;42.662;23.350;2022-08-24T00:21:16;11.40;;;10.23;;
16792;SDS011;8513;42.662;23.350;2022-08-24T00:23:43;12.18;;;10.23;;
16792;SDS011;8513;42.662;23.350;2022-08-24T00:26:09;11.70;;;10.45;;
16792;SDS011;8513;42.662;23.350;2022-08-24T00:28:35;10.88;;;9.77;;
16792;SDS011;8513;42.662;23.350;2022-08-24T00:31:01;11.15;;;10.15;;
16792;SDS011;8513;42.662;23.350;2022-08-24T00:33:27;10.95;;;9.82;;
16792;SDS011;8513;42.662;23.350;2022-08-24T00:38:46;11.25;;;10.25;;
16792;SDS011;8513;42.662;23.350;2022-08-24T00:41:13;12.38;;;11.15;;
16792;SDS011;8513;42.662;23.350;2022-08-24T00:43:48;12.20;;;11.02;;
16792;SDS011;8513;42.662;23.350;2022-08-24T00:49:17;12.52;;;11.43;;
16792;SDS011;8513;42.662;23.350;2022-08-24T00:51:51;13.40;;;12.25;;
16792;SDS011;8513;42.662;23.350;2022-08-24T00:54:25;14.15;;;12.75;;
16792;SDS011;8513;42.662;23.350;2022-08-24T00:56:54;13.50;;;12.20;;
16792;SDS011;8513;42.662;23.350;2022-08-24T00:59:24;15.10;;;13.45;;
16792;SDS011;8513;42.662;23.350;2022-08-24T01:01:55;13.82;;;12.52;;
16792;SDS011;8513;42.662;23.350;2022-08-24T01:04:24;14.65;;;13.18;;
16792;SDS011;8513;42.662;23.350;2022-08-24T01:06:54;14.40;;;13.00;;
16792;SDS011;8513;42.662;23.350;2022-08-24T01:09:21;14.45;;;12.95;;
16792;SDS011;8513;42.662;23.350;2022-08-24T01:11:46;15.07;;;13.52;;
16792;SDS011;8513;42.662;23.350;2022-08-24T01:14:13;14.52;;;13.15;;
16792;SDS011;8513;42.662;23.350;2022-08-24T01:16:41;15.52;;;13.98;;
16792;SDS011;8513;42.662;23.350;2022-08-24T01:24:46;13.95;;;12.55;;
16792;SDS011;8513;42.662;23.350;2022-08-24T01:27:12;17.02;;;14.07;;
16792;SDS011;8513;42.662;23.350;2022-08-24T01:29:39;15.73;;;14.20;;
16792;SDS011;8513;42.662;23.350;2022-08-24T01:32:06;16.15;;;14.70;;
16792;SDS011;8513;42.662;23.350;2022-08-24T01:34:32;18.52;;;16.67;;
16792;SDS011;8513;42.662;23.350;2022-08-24T01:36:58;20.17;;;18.17;;
16792;SDS011;8513;42.662;23.350;2022-08-24T01:39:26;22.33;;;20.05;;
16792;SDS011;8513;42.662;23.350;2022-08-24T01:41:57;23.25;;;21.10;;
16792;SDS011;8513;42.662;23.350;2022-08-24T01:44:24;23.80;;;21.30;;
16792;SDS011;8513;42.662;23.350;2022-08-24T01:46:52;26.60;;;24.00;;
16792;SDS011;8513;42.662;23.350;2022-08-24T01:49:21;26.92;;;24.00;;
16792;SDS011;8513;42.662;23.350;2022-08-24T01:51:59;30.42;;;27.13;;
16792;SDS011;8513;42.662;23.350;2022-08-24T01:54:25;31.98;;;28.75;;
16792;SDS011;8513;42.662;23.350;2022-08-24T01:56:51;34.17;;;30.48;;
16792;SDS011;8513;42.662;23.350;2022-08-24T01:59:17;35.13;;;31.58;;
16792;SDS011;8513;42.662;23.350;2022-08-24T02:02:13;33.00;;;29.48;;
16792;SDS011;8513;42.662;23.350;2022-08-24T02:04:46;32.58;;;29.35;;
16792;SDS011;8513;42.662;23.350;2022-08-24T02:07:12;29.50;;;26.55;;
16792;SDS011;8513;42.662;23.350;2022-08-24T02:09:38;29.52;;;26.42;;
16792;SDS011;8513;42.662;23.350;2022-08-24T02:12:04;35.10;;;28.88;;
16792;SDS011;8513;42.662;23.350;2022-08-24T02:14:30;34.20;;;30.70;;
16792;SDS011;8513;42.662;23.350;2022-08-24T02:16:56;35.88;;;32.20;;
16792;SDS011;8513;42.662;23.350;2022-08-24T02:19:23;36.33;;;31.95;;
16792;SDS011;8513;42.662;23.350;2022-08-24T02:21:49;35.25;;;31.55;;
16792;SDS011;8513;42.662;23.350;2022-08-24T02:24:15;34.55;;;30.92;;
16792;SDS011;8513;42.662;23.350;2022-08-24T02:26:41;36.67;;;32.92;;
16792;SDS011;8513;42.662;23.350;2022-08-24T02:29:06;36.90;;;33.05;;
16792;SDS011;8513;42.662;23.350;2022-08-24T02:31:32;35.42;;;31.80;;
16792;SDS011;8513;42.662;23.350;2022-08-24T02:33:58;35.95;;;32.35;;
16792;SDS011;8513;42.662;23.350;2022-08-24T02:36:23;36.20;;;32.40;;
16792;SDS011;8513;42.662;23.350;2022-08-24T02:38:49;38.38;;;32.75;;
16792;SDS011;8513;42.662;23.350;2022-08-24T02:41:15;37.60;;;33.55;;
16792;SDS011;8513;42.662;23.350;2022-08-24T02:43:40;38.20;;;31.80;;
16792;SDS011;8513;42.662;23.350;2022-08-24T02:46:06;36.20;;;31.88;;
16792;SDS011;8513;42.662;23.350;2022-08-24T02:48:31;33.90;;;30.45;;
16792;SDS011;8513;42.662;23.350;2022-08-24T02:50:56;33.20;;;29.65;;
16792;SDS011;8513;42.662;23.350;2022-08-24T02:53:22;30.42;;;27.25;;
16792;SDS011;8513;42.662;23.350;2022-08-24T02:55:48;29.23;;;26.35;;
16792;SDS011;8513;42.662;23.350;2022-08-24T02:58:14;31.02;;;27.98;;
16792;SDS011;8513;42.662;23.350;2022-08-24T03:00:41;29.45;;;26.23;;
16792;SDS011;8513;42.662;23.350;2022-08-24T03:03:08;28.02;;;25.33;;
16792;SDS011;8513;42.662;23.350;2022-08-24T03:05:35;28.33;;;25.58;;
16792;SDS011;8513;42.662;23.350;2022-08-24T03:08:01;28.58;;;25.58;;
16792;SDS011;8513;42.662;23.350;2022-08-24T03:10:27;27.83;;;25.20;;
16792;SDS011;8513;42.662;23.350;2022-08-24T03:12:53;28.65;;;25.63;;
16792;SDS011;8513;42.662;23.350;2022-08-24T03:15:19;28.25;;;25.40;;
16792;SDS011;8513;42.662;23.350;2022-08-24T03:17:46;26.73;;;24.02;;
16792;SDS011;8513;42.662;23.350;2022-08-24T03:20:14;26.67;;;24.17;;
16792;SDS011;8513;42.662;23.350;2022-08-24T03:22:41;27.95;;;25.00;;
16792;SDS011;8513;42.662;23.350;2022-08-24T03:25:07;26.00;;;23.33;;
16792;SDS011;8513;42.662;23.350;2022-08-24T03:27:33;26.67;;;24.27;;
16792;SDS011;8513;42.662;23.350;2022-08-24T03:29:59;25.30;;;23.02;;
16792;SDS011;8513;42.662;23.350;2022-08-24T03:32:25;25.23;;;22.77;;
16792;SDS011;8513;42.662;23.350;2022-08-24T03:34:51;25.35;;;22.83;;
16792;SDS011;8513;42.662;23.350;2022-08-24T03:37:18;26.10;;;23.60;;
16792;SDS011;8513;42.662;23.350;2022-08-24T03:39:44;25.98;;;23.35;;
16792;SDS011;8513;42.662;23.350;2022-08-24T03:42:11;24.02;;;21.70;;
16792;SDS011;8513;42.662;23.350;2022-08-24T03:44:37;25.75;;;22.85;;
16792;SDS011;8513;42.662;23.350;2022-08-24T03:47:03;24.30;;;22.00;;
16792;SDS011;8513;42.662;23.350;2022-08-24T03:49:28;23.13;;;20.73;;
16792;SDS011;8513;42.662;23.350;2022-08-24T03:51:54;21.63;;;19.63;;
16792;SDS011;8513;42.662;23.350;2022-08-24T03:54:19;17.13;;;15.43;;
16792;SDS011;8513;42.662;23.350;2022-08-24T03:56:44;18.75;;;16.95;;
16792;SDS011;8513;42.662;23.350;2022-08-24T03:59:10;18.73;;;16.90;;
16792;SDS011;8513;42.662;23.350;2022-08-24T04:01:36;17.10;;;15.40;;
16792;SDS011;8513;42.662;23.350;2022-08-24T04:04:03;17.50;;;15.95;;
16792;SDS011;8513;42.662;23.350;2022-08-24T04:06:29;17.83;;;16.27;;
16792;SDS011;8513;42.662;23.350;2022-08-24T04:11:45;16.88;;;15.48;;
16792;SDS011;8513;42.662;23.350;2022-08-24T04:14:11;18.67;;;16.83;;
16792;SDS011;8513;42.662;23.350;2022-08-24T04:16:39;20.98;;;19.02;;
16792;SDS011;8513;42.662;23.350;2022-08-24T04:19:04;19.65;;;17.70;;
16792;SDS011;8513;42.662;23.350;2022-08-24T04:21:31;20.08;;;18.30;;
16792;SDS011;8513;42.662;23.350;2022-08-24T04:23:59;19.92;;;17.35;;
16792;SDS011;8513;42.662;23.350;2022-08-24T04:26:26;17.30;;;15.82;;
16792;SDS011;8513;42.662;23.350;2022-08-24T04:28:54;19.17;;;17.27;;
16792;SDS011;8513;42.662;23.350;2022-08-24T04:31:20;18.23;;;16.42;;
16792;SDS011;8513;42.662;23.350;2022-08-24T04:33:47;15.93;;;14.50;;
16792;SDS011;8513;42.662;23.350;2022-08-24T04:36:13;16.73;;;15.05;;
16792;SDS011;8513;42.662;23.350;2022-08-24T04:38:40;17.70;;;16.15;;
16792;SDS011;8513;42.662;23.350;2022-08-24T04:41:06;17.10;;;15.45;;
16792;SDS011;8513;42.662;23.350;2022-08-24T04:43:33;16.88;;;15.45;;
16792;SDS011;8513;42.662;23.350;2022-08-24T04:46:02;15.77;;;14.13;;
16792;SDS011;8513;42.662;23.350;2022-08-24T04:48:32;16.48;;;14.98;;
16792;SDS011;8513;42.662;23.350;2022-08-24T04:51:03;12.32;;;11.32;;
16792;SDS011;8513;42.662;23.350;2022-08-24T04:53:30;15.15;;;13.80;;
16792;SDS011;8513;42.662;23.350;2022-08-24T04:55:57;15.25;;;13.75;;
16792;SDS011;8513;42.662;23.350;2022-08-24T04:58:23;15.75;;;14.25;;
16792;SDS011;8513;42.662;23.350;2022-08-24T05:00:48;14.63;;;13.27;;
16792;SDS011;8513;42.662;23.350;2022-08-24T05:03:14;12.10;;;11.02;;
16792;SDS011;8513;42.662;23.350;2022-08-24T05:05:41;12.18;;;10.93;;
16792;SDS011;8513;42.662;23.350;2022-08-24T05:08:09;14.98;;;13.55;;
16792;SDS011;8513;42.662;23.350;2022-08-24T05:10:36;13.60;;;12.30;;
16792;SDS011;8513;42.662;23.350;2022-08-24T05:13:07;15.10;;;13.55;;
16792;SDS011;8513;42.662;23.350;2022-08-24T05:15:33;12.93;;;11.82;;
16792;SDS011;8513;42.662;23.350;2022-08-24T05:17:59;11.77;;;10.75;;
16792;SDS011;8513;42.662;23.350;2022-08-24T05:20:25;13.60;;;12.15;;
16792;SDS011;8513;42.662;23.350;2022-08-24T05:22:51;13.63;;;12.02;;
16792;SDS011;8513;42.662;23.350;2022-08-24T05:25:18;12.75;;;11.55;;
16792;SDS011;8513;42.662;23.350;2022-08-24T05:27:44;13.73;;;12.50;;
16792;SDS011;8513;42.662;23.350;2022-08-24T05:30:10;13.63;;;12.27;;
16792;SDS011;8513;42.662;23.350;2022-08-24T05:32:36;13.15;;;10.75;;
16792;SDS011;8513;42.662;23.350;2022-08-24T05:35:02;11.40;;;10.32;;
16792;SDS011;8513;42.662;23.350;2022-08-24T05:37:29;11.10;;;10.00;;
16792;SDS011;8513;42.662;23.350;2022-08-24T05:39:55;10.68;;;9.88;;
16792;SDS011;8513;42.662;23.350;2022-08-24T05:42:21;10.52;;;8.75;;
16792;SDS011;8513;42.662;23.350;2022-08-24T05:44:46;9.60;;;8.45;;
16792;SDS011;8513;42.662;23.350;2022-08-24T05:47:12;9.45;;;8.65;;
16792;SDS011;8513;42.662;23.350;2022-08-24T05:49:38;10.98;;;7.80;;
16792;SDS011;8513;42.662;23.350;2022-08-24T05:52:03;8.93;;;8.00;;
16792;SDS011;8513;42.662;23.350;2022-08-24T05:54:29;9.00;;;8.30;;
16792;SDS011;8513;42.662;23.350;2022-08-24T05:56:55;9.63;;;8.75;;
16792;SDS011;8513;42.662;23.350;2022-08-24T05:59:21;9.38;;;8.48;;
16792;SDS011;8513;42.662;23.350;2022-08-24T06:01:47;8.82;;;8.05;;
16792;SDS011;8513;42.662;23.350;2022-08-24T06:04:13;8.82;;;8.13;;
16792;SDS011;8513;42.662;23.350;2022-08-24T06:06:39;8.90;;;7.93;;
16792;SDS011;8513;42.662;23.350;2022-08-24T06:09:04;9.35;;;8.50;;
16792;SDS011;8513;42.662;23.350;2022-08-24T06:11:32;8.68;;;7.90;;
16792;SDS011;8513;42.662;23.350;2022-08-24T06:14:04;8.98;;;8.13;;
16792;SDS011;8513;42.662;23.350;2022-08-24T06:16:36;9.32;;;8.43;;
16792;SDS011;8513;42.662;23.350;2022-08-24T06:19:03;9.05;;;8.35;;
16792;SDS011;8513;42.662;23.350;2022-08-24T06:21:30;10.18;;;9.18;;
16792;SDS011;8513;42.662;23.350;2022-08-24T06:23:57;9.63;;;8.70;;
16792;SDS011;8513;42.662;23.350;2022-08-24T06:26:24;9.30;;;8.50;;
16792;SDS011;8513;42.662;23.350;2022-08-24T06:29:09;9.90;;;8.88;;
16792;SDS011;8513;42.662;23.350;2022-08-24T06:31:38;9.43;;;8.52;;
16792;SDS011;8513;42.662;23.350;2022-08-24T06:34:06;9.23;;;7.95;;
16792;SDS011;8513;42.662;23.350;2022-08-24T06:36:32;11.57;;;10.45;;
16792;SDS011;8513;42.662;23.350;2022-08-24T06:38:58;11.20;;;10.20;;
16792;SDS011;8513;42.662;23.350;2022-08-24T06:41:24;12.02;;;10.93;;
16792;SDS011;8513;42.662;23.350;2022-08-24T06:43:50;10.60;;;9.50;;
16792;SDS011;8513;42.662;23.350;2022-08-24T06:46:16;10.35;;;8.98;;
16792;SDS011;8513;42.662;23.350;2022-08-24T06:48:42;9.98;;;9.05;;
16792;SDS011;8513;42.662;23.350;2022-08-24T06:51:09;9.52;;;8.65;;
16792;SDS011;8513;42.662;23.350;2022-08-24T06:53:37;9.50;;;8.57;;
16792;SDS011;8513;42.662;23.350;2022-08-24T06:56:02;8.77;;;7.88;;
16792;SDS011;8513;42.662;23.350;2022-08-24T06:58:28;9.40;;;8.32;;
16792;SDS011;8513;42.662;23.350;2022-08-24T07:00:54;8.15;;;7.43;;
16792;SDS011;8513;42.662;23.350;2022-08-24T07:03:23;8.02;;;7.32;;
16792;SDS011;8513;42.662;23.350;2022-08-24T07:05:53;8.43;;;7.63;;
16792;SDS011;8513;42.662;23.350;2022-08-24T07:08:21;10.85;;;7.65;;
16792;SDS011;8513;42.662;23.350;2022-08-24T07:10:47;8.70;;;7.97;;
16792;SDS011;8513;42.662;23.350;2022-08-24T07:13:13;8.05;;;7.45;;
16792;SDS011;8513;42.662;23.350;2022-08-24T07:15:42;9.80;;;8.80;;
16792;SDS011;8513;42.662;23.350;2022-08-24T07:18:10;7.68;;;6.93;;
16792;SDS011;8513;42.662;23.350;2022-08-24T07:20:40;7.25;;;6.57;;
16792;SDS011;8513;42.662;23.350;2022-08-24T07:23:07;7.95;;;6.43;;
16792;SDS011;8513;42.662;23.350;2022-08-24T07:25:33;7.15;;;6.63;;
16792;SDS011;8513;42.662;23.350;2022-08-24T07:27:59;7.18;;;6.47;;
16792;SDS011;8513;42.662;23.350;2022-08-24T07:30:28;8.20;;;6.95;;
16792;SDS011;8513;42.662;23.350;2022-08-24T07:32:55;8.00;;;7.30;;
16792;SDS011;8513;42.662;23.350;2022-08-24T07:35:21;7.25;;;6.60;;
16792;SDS011;8513;42.662;23.350;2022-08-24T07:37:48;7.75;;;6.20;;
16792;SDS011;8513;42.662;23.350;2022-08-24T07:40:14;7.20;;;6.50;;
16792;SDS011;8513;42.662;23.350;2022-08-24T07:42:40;6.22;;;5.72;;
16792;SDS011;8513;42.662;23.350;2022-08-24T07:45:06;6.40;;;5.88;;
16792;SDS011;8513;42.662;23.350;2022-08-24T07:47:32;6.55;;;5.90;;
16792;SDS011;8513;42.662;23.350;2022-08-24T07:49:58;6.18;;;5.65;;
16792;SDS011;8513;42.662;23.350;2022-08-24T07:52:23;6.93;;;6.00;;
16792;SDS011;8513;42.662;23.350;2022-08-24T07:54:49;5.93;;;5.43;;
16792;SDS011;8513;42.662;23.350;2022-08-24T07:57:14;5.70;;;5.30;;
16792;SDS011;8513;42.662;23.350;2022-08-24T07:59:40;6.18;;;5.57;;
16792;SDS011;8513;42.662;23.350;2022-08-24T08:02:06;5.90;;;5.45;;
16792;SDS011;8513;42.662;23.350;2022-08-24T08:04:35;5.60;;;5.10;;
16792;SDS011;8513;42.662;23.350;2022-08-24T08:07:00;5.60;;;5.10;;
16792;SDS011;8513;42.662;23.350;2022-08-24T08:09:26;5.90;;;5.30;;
16792;SDS011;8513;42.662;23.350;2022-08-24T08:11:51;7.72;;;5.90;;
16792;SDS011;8513;42.662;23.350;2022-08-24T08:14:17;6.32;;;5.78;;
16792;SDS011;8513;42.662;23.350;2022-08-24T08:16:42;6.50;;;5.90;;
16792;SDS011;8513;42.662;23.350;2022-08-24T08:19:08;5.88;;;5.38;;
16792;SDS011;8513;42.662;23.350;2022-08-24T08:21:34;5.68;;;5.22;;
16792;SDS011;8513;42.662;23.350;2022-08-24T08:24:22;7.63;;;5.82;;
16792;SDS011;8513;42.662;23.350;2022-08-24T08:26:48;7.30;;;6.00;;
16792;SDS011;8513;42.662;23.350;2022-08-24T08:29:15;5.95;;;5.38;;
16792;SDS011;8513;42.662;23.350;2022-08-24T08:31:42;6.28;;;5.78;;
16792;SDS011;8513;42.662;23.350;2022-08-24T08:34:08;5.95;;;5.22;;
16792;SDS011;8513;42.662;23.350;2022-08-24T08:36:34;5.93;;;5.43;;
16792;SDS011;8513;42.662;23.350;2022-08-24T08:38:59;8.90;;;5.85;;
16792;SDS011;8513;42.662;23.350;2022-08-24T08:55:04;4.65;;;4.22;;
16792;SDS011;8513;42.662;23.350;2022-08-24T09:00:20;4.90;;;4.50;;
16792;SDS011;8513;42.662;23.350;2022-08-24T09:08:51;4.53;;;4.22;;
16792;SDS011;8513;42.662;23.350;2022-08-24T09:11:25;4.57;;;4.18;;
16792;SDS011;8513;42.662;23.350;2022-08-24T09:22:37;6.03;;;5.07;;
16792;SDS011;8513;42.662;23.350;2022-08-24T09:28:27;5.18;;;4.68;;
16792;SDS011;8513;42.662;23.350;2022-08-24T09:40:02;5.15;;;4.65;;
16792;SDS011;8513;42.662;23.350;2022-08-24T09:48:25;5.22;;;4.72;;
16792;SDS011;8513;42.662;23.350;2022-08-24T10:16:26;5.30;;;4.80;;
16792;SDS011;8513;42.662;23.350;2022-08-24T10:31:05;4.38;;;4.03;;
16792;SDS011;8513;42.662;23.350;2022-08-24T10:36:45;7.40;;;4.63;;
16792;SDS011;8513;42.662;23.350;2022-08-24T10:39:21;4.88;;;4.38;;
16792;SDS011;8513;42.662;23.350;2022-08-24T10:44:48;4.78;;;4.20;;
16792;SDS011;8513;42.662;23.350;2022-08-24T10:47:28;4.95;;;4.20;;
16792;SDS011;8513;42.662;23.350;2022-08-24T10:55:26;6.93;;;4.75;;
16792;SDS011;8513;42.662;23.350;2022-08-24T11:00:37;5.75;;;4.63;;
16792;SDS011;8513;42.662;23.350;2022-08-24T11:03:08;6.22;;;5.35;;
16792;SDS011;8513;42.662;23.350;2022-08-24T11:05:53;5.38;;;4.70;;
16792;SDS011;8513;42.662;23.350;2022-08-24T11:08:20;5.25;;;4.45;;
16792;SDS011;8513;42.662;23.350;2022-08-24T11:13:31;5.10;;;4.60;;
16792;SDS011;8513;42.662;23.350;2022-08-24T11:15:58;5.85;;;4.70;;
16792;SDS011;8513;42.662;23.350;2022-08-24T11:18:28;6.55;;;5.25;;
16792;SDS011;8513;42.662;23.350;2022-08-24T11:21:11;4.97;;;4.47;;
16792;SDS011;8513;42.662;23.350;2022-08-24T11:23:55;7.43;;;5.20;;
16792;SDS011;8513;42.662;23.350;2022-08-24T11:26:26;5.50;;;4.38;;
16792;SDS011;8513;42.662;23.350;2022-08-24T11:28:53;5.60;;;4.47;;
16792;SDS011;8513;42.662;23.350;2022-08-24T11:31:30;8.35;;;4.75;;
16792;SDS011;8513;42.662;23.350;2022-08-24T11:33:59;5.70;;;5.18;;
16792;SDS011;8513;42.662;23.350;2022-08-24T11:36:32;6.38;;;4.57;;
16792;SDS011;8513;42.662;23.350;2022-08-24T11:42:32;8.05;;;4.82;;
16792;SDS011;8513;42.662;23.350;2022-08-24T11:44:54;5.22;;;4.63;;
16792;SDS011;8513;42.662;23.350;2022-08-24T11:47:30;5.85;;;4.72;;
16792;SDS011;8513;42.662;23.350;2022-08-24T11:50:10;5.95;;;5.10;;
16792;SDS011;8513;42.662;23.350;2022-08-24T12:12:26;5.68;;;4.75;;
16792;SDS011;8513;42.662;23.350;2022-08-24T12:17:35;7.22;;;4.93;;
16792;SDS011;8513;42.662;23.350;2022-08-24T12:20:13;7.47;;;5.15;;
16792;SDS011;8513;42.662;23.350;2022-08-24T12:22:42;6.18;;;5.18;;
16792;SDS011;8513;42.662;23.350;2022-08-24T12:25:08;6.38;;;4.97;;
16792;SDS011;8513;42.662;23.350;2022-08-24T12:27:53;6.60;;;5.68;;
16792;SDS011;8513;42.662;23.350;2022-08-24T12:30:19;7.75;;;5.85;;
16792;SDS011;8513;42.662;23.350;2022-08-24T12:32:47;8.55;;;5.93;;
16792;SDS011;8513;42.662;23.350;2022-08-24T12:38:21;7.45;;;6.38;;
16792;SDS011;8513;42.662;23.350;2022-08-24T12:40:52;6.35;;;5.75;;
16792;SDS011;8513;42.662;23.350;2022-08-24T12:45:47;7.20;;;5.90;;
16792;SDS011;8513;42.662;23.350;2022-08-24T12:57:12;6.63;;;6.00;;
16792;SDS011;8513;42.662;23.350;2022-08-24T12:59:51;8.25;;;5.78;;
16792;SDS011;8513;42.662;23.350;2022-08-24T14:01:37;9.75;;;6.32;;
16792;SDS011;8513;42.662;23.350;2022-08-24T14:31:39;8.05;;;6.00;;
16792;SDS011;8513;42.662;23.350;2022-08-24T14:45:05;7.85;;;5.72;;
16792;SDS011;8513;42.662;23.350;2022-08-24T14:47:43;9.70;;;5.78;;
16792;SDS011;8513;42.662;23.350;2022-08-24T14:50:16;12.07;;;5.82;;
16792;SDS011;8513;42.662;23.350;2022-08-24T14:52:53;9.10;;;5.78;;
16792;SDS011;8513;42.662;23.350;2022-08-24T15:06:43;10.85;;;6.18;;
16792;SDS011;8513;42.662;23.350;2022-08-24T15:09:27;10.20;;;6.45;;
16792;SDS011;8513;42.662;23.350;2022-08-24T15:12:10;9.63;;;6.45;;
16792;SDS011;8513;42.662;23.350;2022-08-24T15:17:57;16.13;;;7.63;;
16792;SDS011;8513;42.662;23.350;2022-08-24T15:26:00;13.48;;;7.90;;
16792;SDS011;8513;42.662;23.350;2022-08-24T15:28:29;11.23;;;7.47;;
16792;SDS011;8513;42.662;23.350;2022-08-24T15:30:58;11.32;;;7.40;;
16792;SDS011;8513;42.662;23.350;2022-08-24T15:33:28;12.57;;;7.70;;
16792;SDS011;8513;42.662;23.350;2022-08-24T15:38:34;11.65;;;8.20;;
16792;SDS011;8513;42.662;23.350;2022-08-24T15:43:27;9.07;;;7.28;;
16792;SDS011;8513;42.662;23.350;2022-08-24T15:45:53;15.60;;;7.90;;
16792;SDS011;8513;42.662;23.350;2022-08-24T15:48:20;15.88;;;8.77;;
16792;SDS011;8513;42.662;23.350;2022-08-24T15:50:50;18.13;;;7.75;;
16792;SDS011;8513;42.662;23.350;2022-08-24T15:56:38;12.88;;;7.85;;
16792;SDS011;8513;42.662;23.350;2022-08-24T15:59:05;13.13;;;7.55;;
16792;SDS011;8513;42.662;23.350;2022-08-24T16:01:35;15.65;;;7.68;;
16792;SDS011;8513;42.662;23.350;2022-08-24T16:04:37;17.38;;;7.95;;
16792;SDS011;8513;42.662;23.350;2022-08-24T16:07:10;14.43;;;7.45;;
16792;SDS011;8513;42.662;23.350;2022-08-24T16:09:37;12.88;;;7.63;;
16792;SDS011;8513;42.662;23.350;2022-08-24T16:12:20;17.85;;;8.30;;
16792;SDS011;8513;42.662;23.350;2022-08-24T16:14:47;15.05;;;7.30;;
16792;SDS011;8513;42.662;23.350;2022-08-24T16:19:48;15.63;;;7.55;;
16792;SDS011;8513;42.662;23.350;2022-08-24T16:22:23;15.13;;;7.65;;
16792;SDS011;8513;42.662;23.350;2022-08-24T16:25:08;13.15;;;7.88;;
16792;SDS011;8513;42.662;23.350;2022-08-24T16:35:55;19.77;;;8.65;;
16792;SDS011;8513;42.662;23.350;2022-08-24T16:38:22;20.13;;;8.75;;
16792;SDS011;8513;42.662;23.350;2022-08-24T16:40:49;15.60;;;8.32;;
16792;SDS011;8513;42.662;23.350;2022-08-24T16:43:14;15.45;;;7.72;;
16792;SDS011;8513;42.662;23.350;2022-08-24T16:45:40;16.45;;;7.57;;
16792;SDS011;8513;42.662;23.350;2022-08-24T16:48:06;18.42;;;7.75;;
16792;SDS011;8513;42.662;23.350;2022-08-24T16:50:31;18.20;;;8.80;;
16792;SDS011;8513;42.662;23.350;2022-08-24T16:52:57;17.73;;;8.18;;
16792;SDS011;8513;42.662;23.350;2022-08-24T16:55:22;18.30;;;8.23;;
16792;SDS011;8513;42.662;23.350;2022-08-24T16:57:48;20.40;;;8.93;;
16792;SDS011;8513;42.662;23.350;2022-08-24T17:00:14;17.80;;;8.27;;
16792;SDS011;8513;42.662;23.350;2022-08-24T17:02:43;22.80;;;7.85;;
16792;SDS011;8513;42.662;23.350;2022-08-24T17:05:11;19.92;;;8.13;;
16792;SDS011;8513;42.662;23.350;2022-08-24T17:07:38;19.45;;;8.30;;
16792;SDS011;8513;42.662;23.350;2022-08-24T17:10:04;18.73;;;8.27;;
16792;SDS011;8513;42.662;23.350;2022-08-24T17:12:33;16.50;;;8.00;;
16792;SDS011;8513;42.662;23.350;2022-08-24T17:15:00;23.42;;;9.25;;
16792;SDS011;8513;42.662;23.350;2022-08-24T17:17:27;23.00;;;9.52;;
16792;SDS011;8513;42.662;23.350;2022-08-24T17:19:53;17.98;;;7.78;;
16792;SDS011;8513;42.662;23.350;2022-08-24T17:22:20;18.92;;;8.15;;
16792;SDS011;8513;42.662;23.350;2022-08-24T17:24:47;23.77;;;7.82;;
16792;SDS011;8513;42.662;23.350;2022-08-24T17:27:14;23.27;;;8.35;;
16792;SDS011;8513;42.662;23.350;2022-08-24T17:29:40;24.73;;;9.32;;
16792;SDS011;8513;42.662;23.350;2022-08-24T17:32:08;22.63;;;8.85;;
16792;SDS011;8513;42.662;23.350;2022-08-24T17:34:34;21.50;;;9.85;;
16792;SDS011;8513;42.662;23.350;2022-08-24T17:37:00;20.38;;;9.80;;
16792;SDS011;8513;42.662;23.350;2022-08-24T17:39:26;24.33;;;9.57;;
16792;SDS011;8513;42.662;23.350;2022-08-24T17:41:52;18.65;;;8.65;;
16792;SDS011;8513;42.662;23.350;2022-08-24T17:44:20;21.75;;;8.38;;
16792;SDS011;8513;42.662;23.350;2022-08-24T17:46:49;24.27;;;9.13;;
16792;SDS011;8513;42.662;23.350;2022-08-24T17:49:16;17.10;;;8.77;;
16792;SDS011;8513;42.662;23.350;2022-08-24T17:51:42;19.60;;;8.60;;
16792;SDS011;8513;42.662;23.350;2022-08-24T17:54:08;18.05;;;8.27;;
16792;SDS011;8513;42.662;23.350;2022-08-24T17:56:34;23.85;;;9.68;;
16792;SDS011;8513;42.662;23.350;2022-08-24T17:59:04;21.65;;;10.38;;
16792;SDS011;8513;42.662;23.350;2022-08-24T18:01:44;22.20;;;10.00;;
16792;SDS011;8513;42.662;23.350;2022-08-24T18:04:11;20.52;;;9.30;;
16792;SDS011;8513;42.662;23.350;2022-08-24T18:06:37;22.17;;;9.75;;
16792;SDS011;8513;42.662;23.350;2022-08-24T18:09:03;17.52;;;9.25;;
16792;SDS011;8513;42.662;23.350;2022-08-24T18:11:32;19.33;;;10.00;;
16792;SDS011;8513;42.662;23.350;2022-08-24T18:13:58;19.45;;;10.27;;
16792;SDS011;8513;42.662;23.350;2022-08-24T18:16:25;18.83;;;9.40;;
16792;SDS011;8513;42.662;23.350;2022-08-24T18:18:52;23.98;;;10.70;;
16792;SDS011;8513;42.662;23.350;2022-08-24T18:21:18;29.20;;;10.45;;
16792;SDS011;8513;42.662;23.350;2022-08-24T18:23:44;22.30;;;10.07;;
16792;SDS011;8513;42.662;23.350;2022-08-24T18:26:13;19.25;;;9.20;;
16792;SDS011;8513;42.662;23.350;2022-08-24T18:28:43;18.55;;;9.68;;
16792;SDS011;8513;42.662;23.350;2022-08-24T18:31:09;17.23;;;10.00;;
16792;SDS011;8513;42.662;23.350;2022-08-24T18:33:34;21.23;;;9.60;;
16792;SDS011;8513;42.662;23.350;2022-08-24T18:35:59;22.75;;;10.77;;
16792;SDS011;8513;42.662;23.350;2022-08-24T18:38:25;22.02;;;10.27;;
16792;SDS011;8513;42.662;23.350;2022-08-24T18:40:50;21.30;;;11.05;;
16792;SDS011;8513;42.662;23.350;2022-08-24T18:43:16;26.70;;;11.10;;
16792;SDS011;8513;42.662;23.350;2022-08-24T18:45:43;23.85;;;10.57;;
16792;SDS011;8513;42.662;23.350;2022-08-24T18:48:09;24.73;;;11.07;;
16792;SDS011;8513;42.662;23.350;2022-08-24T18:50:34;25.27;;;11.10;;
16792;SDS011;8513;42.662;23.350;2022-08-24T18:53:00;22.70;;;11.07;;
16792;SDS011;8513;42.662;23.350;2022-08-24T18:55:26;22.30;;;10.85;;
16792;SDS011;8513;42.662;23.350;2022-08-24T18:57:51;26.05;;;10.70;;
16792;SDS011;8513;42.662;23.350;2022-08-24T19:00:17;20.77;;;12.07;;
16792;SDS011;8513;42.662;23.350;2022-08-24T19:02:43;22.27;;;10.75;;
16792;SDS011;8513;42.662;23.350;2022-08-24T19:05:10;24.30;;;11.23;;
16792;SDS011;8513;42.662;23.350;2022-08-24T19:07:40;24.58;;;10.93;;
16792;SDS011;8513;42.662;23.350;2022-08-24T19:10:10;24.50;;;10.80;;
16792;SDS011;8513;42.662;23.350;2022-08-24T19:12:49;22.90;;;11.52;;
16792;SDS011;8513;42.662;23.350;2022-08-24T19:15:19;20.75;;;10.52;;
16792;SDS011;8513;42.662;23.350;2022-08-24T19:17:45;21.25;;;11.50;;
16792;SDS011;8513;42.662;23.350;2022-08-24T19:20:11;25.52;;;11.68;;
16792;SDS011;8513;42.662;23.350;2022-08-24T19:22:38;20.58;;;11.00;;
16792;SDS011;8513;42.662;23.350;2022-08-24T19:25:05;17.80;;;10.18;;
16792;SDS011;8513;42.662;23.350;2022-08-24T19:27:32;22.13;;;11.73;;
16792;SDS011;8513;42.662;23.350;2022-08-24T19:30:00;20.63;;;10.90;;
16792;SDS011;8513;42.662;23.350;2022-08-24T19:32:26;22.25;;;11.80;;
16792;SDS011;8513;42.662;23.350;2022-08-24T19:34:53;20.27;;;11.77;;